TFM - Tactical Decision Aid
ID: Runway Winds: CIG/VIS Threshold:

KDFW - Dallas-Ft Worth Intl, TX, US

Updated at: 1657 UTC 22 Sep 2019
Latest TAF at: 1502 UTC 22 Sep 2019

TAF Board

Time1653Z 22/17Z 22/18Z 22/19Z 22/20Z 22/21Z 22/22Z 22/23Z 23/00Z 23/01Z 23/02Z 23/03Z 23/04Z 23/05Z>>
Type OBS PRVL PRVL PRVL PRVL PRVL PRVL PRVL PRVL PRVL PRVL PRVL PRVL PRVL
VIS 10 >6 >6 >6 >6 >6 >6 >6 >6 >6 >6 >6 >6 >6
CIG 39 35 35 35 35 35 35 35 35 35 35 35 35 100
Cover BKN BKN BKN BKN BKN BKN BKN BKN BKN BKN BKN BKN BKN BKN
FltCat VFR VFR VFR VFR VFR VFR VFR VFR VFR VFR VFR VFR VFR VFR
WX -- -- -- -- -- -- -- -- -- -- -- -- -- --
WDir 200 200 200 200 200 200 200 200 200 200 200 200 200 180
WSpd 15 15 15 15 15 15 15 15 15 15 15 15 15 10
WGst 21 -- -- -- -- -- -- -- -- -- -- -- -- --

TDA Impact Legend

  None Marginal Slight Moderate High
Visibility (sm) >5 3≤X≤5 1≤X<3 0.5≤X<1 <0.5
Ceiling (100 ft) >30 10≤X≤30 4≤X<10 2≤X<4 <2
Wind Speed (kt) <15 15≤X<25 25≤X<30 ≥30
Wind Gust (kt) <15 15≤X<25 25≤X<35 ≥35
Weather No Wx Reported VCTS -TS,-FZRA TS,FZRA +TS,+FZRA
TAF
KDFW 221502Z 2215/2318 18015KT P6SM SCT020 BKN250
  FM221600 20015KT P6SM BKN035
  FM230500 18010KT P6SM BKN100


METAR
KDFW 221653Z 20015G21KT 10SM BKN039 BKN046 BKN300 31/21 A3000 RMK AO2 PK WND 19026/1607 SLP150 T03060206 $
KDFW 221553Z 18019G25KT 10SM SCT029 BKN300 29/21 A3000 RMK AO2 PK WND 20026/1454 SLP149 T02940206 $
KDFW 221453Z 20020KT 10SM SCT019 BKN300 28/21 A3000 RMK AO2 SLP149 T02780211 51001 $
KDFW 221353Z 18013KT 10SM FEW016 BKN300 27/22 A3000 RMK AO2 SLP149 T02670217 $

Radar Display
Forecast Discussion